Time;durP1;ratioP1;P1;durP2;ratioP2;P2;SDS_P1;SDS_P2;PMS_P1;PMS_P2;Temp;Humidity;BMP_temperature;BMP_pressure;BME280_temperature;BME280_humidity;BME280_pressure;Samples;Min_cycle;Max_cycle;Signal;HPM_P1;HPM_P2
2022/04/16 00:00:27;;;;;;;3.92;3.63;;;10.00;99.90;;;;;;5063855;28;20283;-60
2022/04/16 00:02:56;;;;;;;5.03;4.35;;;10.00;99.90;;;;;;5063348;28;20192;-60
2022/04/16 00:05:24;;;;;;;3.50;3.22;;;10.00;99.90;;;;;;5072409;28;20204;-60
2022/04/16 00:10:36;;;;;;;4.00;3.70;;;10.00;99.90;;;;;;5065268;28;20211;-60
2022/04/16 00:13:04;;;;;;;4.32;4.03;;;10.00;99.90;;;;;;5065709;28;20198;-60
2022/04/16 00:15:32;;;;;;;4.63;4.22;;;10.00;99.90;;;;;;5064545;28;20942;-60
2022/04/16 00:18:00;;;;;;;4.28;3.97;;;10.00;99.90;;;;;;5065970;28;20223;-61
2022/04/16 00:20:28;;;;;;;3.72;3.42;;;10.00;99.90;;;;;;5063680;28;20207;-60
2022/04/16 00:22:56;;;;;;;4.50;4.10;;;10.10;99.90;;;;;;5063571;28;20309;-60
2022/04/16 00:25:24;;;;;;;4.18;3.88;;;10.10;99.90;;;;;;5064365;28;20699;-60
2022/04/16 00:27:54;;;;;;;5.07;4.57;;;10.20;99.90;;;;;;5064146;28;20293;-60
2022/04/16 00:30:22;;;;;;;4.10;3.80;;;10.20;99.90;;;;;;5064945;28;20282;-60
2022/04/16 00:32:54;;;;;;;3.95;3.65;;;10.30;99.90;;;;;;5063958;28;20227;-60
2022/04/16 00:35:23;;;;;;;4.20;3.80;;;10.30;99.90;;;;;;5066184;28;20207;-61
2022/04/16 00:37:51;;;;;;;4.53;4.15;;;10.30;99.90;;;;;;5064071;28;20230;-61
2022/04/16 00:40:19;;;;;;;4.53;4.13;;;10.30;99.90;;;;;;5063711;28;20678;-61
2022/04/16 00:42:48;;;;;;;3.85;3.55;;;10.40;99.90;;;;;;5065594;28;20305;-61
2022/04/16 00:45:17;;;;;;;4.47;4.07;;;10.50;99.90;;;;;;5065500;28;20226;-61
2022/04/16 00:47:45;;;;;;;4.07;3.88;;;10.40;99.90;;;;;;5064855;28;20687;-60
2022/04/16 00:50:13;;;;;;;4.32;4.03;;;10.40;99.90;;;;;;5063796;28;20195;-61
2022/04/16 00:52:43;;;;;;;4.57;4.18;;;10.40;99.90;;;;;;5063784;28;20200;-61
2022/04/16 00:55:11;;;;;;;4.20;4.00;;;10.50;99.90;;;;;;5064521;28;20289;-61
2022/04/16 00:57:41;;;;;;;4.57;4.28;;;10.60;99.90;;;;;;5065681;28;20196;-60
2022/04/16 01:00:10;;;;;;;5.00;4.57;;;10.60;99.90;;;;;;5062534;28;20285;-61
2022/04/16 01:02:40;;;;;;;3.83;3.60;;;10.70;99.90;;;;;;5062869;28;20700;-61
2022/04/16 01:05:12;;;;;;;4.60;4.20;;;10.70;99.90;;;;;;5063209;28;20630;-62
2022/04/16 01:07:53;;;;;;;4.57;4.15;;;10.70;99.90;;;;;;5064716;28;20656;-60
2022/04/16 01:10:24;;;;;;;4.22;3.92;;;10.90;99.90;;;;;;5067985;28;20195;-61
2022/04/16 01:12:52;;;;;;;4.60;3.90;;;10.90;99.90;;;;;;5063221;28;20633;-61
2022/04/16 01:15:20;;;;;;;4.57;3.83;;;10.90;99.90;;;;;;5064310;28;20199;-61
2022/04/16 01:17:50;;;;;;;5.32;4.70;;;11.00;99.90;;;;;;5063459;28;20281;-61
2022/04/16 01:20:19;;;;;;;4.43;4.03;;;10.90;99.90;;;;;;5064242;28;20318;-60
2022/04/16 01:22:50;;;;;;;5.80;5.18;;;10.80;99.90;;;;;;5062320;28;20707;-61
2022/04/16 01:25:18;;;;;;;4.50;4.10;;;10.60;99.90;;;;;;5063754;28;20253;-60
2022/04/16 01:27:46;;;;;;;5.15;4.75;;;10.50;99.90;;;;;;5064486;28;20237;-60
2022/04/16 01:30:16;;;;;;;5.28;4.78;;;10.50;99.90;;;;;;5062536;28;20196;-60
2022/04/16 01:32:44;;;;;;;5.15;4.68;;;10.40;99.90;;;;;;5063819;28;20200;-61
2022/04/16 01:35:12;;;;;;;5.50;5.10;;;10.40;99.90;;;;;;5063486;28;20207;-60
2022/04/16 01:37:40;;;;;;;6.10;5.50;;;10.40;99.90;;;;;;5062081;28;20234;-61
2022/04/16 01:40:12;;;;;;;5.30;4.80;;;10.50;99.90;;;;;;5064349;28;20278;-61
2022/04/16 01:42:39;;;;;;;6.40;5.80;;;10.40;99.90;;;;;;5063034;28;20277;-60
2022/04/16 01:45:09;;;;;;;6.13;5.55;;;10.40;99.90;;;;;;5063499;28;20688;-60
2022/04/16 01:47:38;;;;;;;6.38;5.78;;;10.30;99.90;;;;;;5062763;28;20282;-60
2022/04/16 01:50:09;;;;;;;6.32;5.82;;;10.30;99.90;;;;;;5063015;28;20199;-60
2022/04/16 01:52:38;;;;;;;7.10;6.40;;;10.30;99.90;;;;;;5063562;28;20195;-61
2022/04/16 01:55:07;;;;;;;5.93;5.43;;;10.30;99.90;;;;;;5063255;28;20227;-60
2022/04/16 01:57:36;;;;;;;6.95;6.35;;;10.40;99.90;;;;;;5063005;28;20203;-60
2022/04/16 02:00:07;;;;;;;7.05;6.45;;;10.40;99.90;;;;;;5063999;28;20294;-62
2022/04/16 02:02:36;;;;;;;7.35;6.65;;;10.40;99.90;;;;;;5063724;28;20243;-61
2022/04/16 02:05:05;;;;;;;6.80;6.20;;;10.30;99.90;;;;;;5063963;28;20235;-60
2022/04/16 02:07:33;;;;;;;7.70;7.10;;;10.40;99.90;;;;;;5062061;28;20714;-60
2022/04/16 02:10:01;;;;;;;6.68;6.07;;;10.40;99.90;;;;;;5064105;28;20249;-62
2022/04/16 02:12:29;;;;;;;8.05;7.45;;;10.40;99.90;;;;;;5063265;28;20194;-61
2022/04/16 02:14:58;;;;;;;8.15;7.00;;;10.40;99.90;;;;;;5064178;28;20218;-60
2022/04/16 02:17:26;;;;;;;7.25;6.65;;;10.50;99.90;;;;;;5063892;28;20219;-60
2022/04/16 02:19:54;;;;;;;7.95;7.35;;;10.40;99.90;;;;;;5062294;28;21090;-61
2022/04/16 02:22:22;;;;;;;7.80;7.10;;;10.40;99.90;;;;;;5063523;28;20247;-61
2022/04/16 02:24:49;;;;;;;8.32;7.45;;;10.40;99.90;;;;;;5061962;28;20207;-61
2022/04/16 02:27:17;;;;;;;6.43;5.90;;;10.40;99.90;;;;;;5062392;28;20265;-61
2022/04/16 02:29:45;;;;;;;8.00;7.30;;;10.50;99.90;;;;;;5062810;28;20314;-61
2022/04/16 02:32:14;;;;;;;8.15;6.30;;;10.50;99.90;;;;;;5073110;28;20278;-61
2022/04/16 02:34:42;;;;;;;8.02;7.32;;;10.50;99.90;;;;;;5062300;28;20672;-61
2022/04/16 02:37:10;;;;;;;9.48;7.70;;;10.40;99.90;;;;;;5062411;28;20687;-61
2022/04/16 02:39:38;;;;;;;8.15;7.35;;;10.40;99.90;;;;;;5063130;28;20317;-61
2022/04/16 02:42:06;;;;;;;7.90;7.20;;;10.40;99.90;;;;;;5062435;28;20386;-61
2022/04/16 02:47:20;;;;;;;11.10;10.10;;;10.50;99.90;;;;;;5062797;28;20203;-61
2022/04/16 02:49:48;;;;;;;9.70;8.73;;;10.40;99.90;;;;;;5061840;28;20231;-61
2022/04/16 02:52:16;;;;;;;9.77;8.88;;;10.40;99.90;;;;;;5060614;28;20310;-61
2022/04/16 02:54:44;;;;;;;8.98;8.10;;;10.40;99.90;;;;;;5068323;28;20242;-61
2022/04/16 02:57:12;;;;;;;10.07;9.10;;;10.40;99.90;;;;;;5070407;28;20261;-61
2022/04/16 02:59:40;;;;;;;10.55;9.50;;;10.40;99.90;;;;;;5061574;28;20246;-61
2022/04/16 03:02:08;;;;;;;10.43;9.43;;;10.40;99.90;;;;;;5061901;28;20214;-61
2022/04/16 03:04:37;;;;;;;9.88;9.07;;;10.40;99.90;;;;;;5062480;28;20310;-61
2022/04/16 03:07:06;;;;;;;10.32;9.32;;;10.40;99.90;;;;;;5062686;28;20195;-61
2022/04/16 03:09:33;;;;;;;9.80;8.90;;;10.40;99.90;;;;;;5068054;28;20246;-60
2022/04/16 03:12:01;;;;;;;9.07;8.27;;;10.40;99.90;;;;;;5063057;28;20199;-60
2022/04/16 03:17:35;;;;;;;9.23;8.32;;;10.40;99.90;;;;;;5062364;28;20219;-61
2022/04/16 03:20:06;;;;;;;12.15;8.70;;;10.40;99.90;;;;;;5062882;28;20742;-60
2022/04/16 03:22:35;;;;;;;9.75;8.85;;;10.50;99.90;;;;;;5062296;28;20230;-61
2022/04/16 03:25:04;;;;;;;11.15;8.73;;;10.50;99.90;;;;;;5065621;28;20241;-60
2022/04/16 03:27:32;;;;;;;10.55;9.48;;;10.50;99.90;;;;;;5067266;28;20194;-61
2022/04/16 03:30:00;;;;;;;11.05;9.88;;;10.40;99.90;;;;;;5064703;28;20306;-61
2022/04/16 03:32:27;;;;;;;10.27;9.38;;;10.50;99.90;;;;;;5065636;28;20230;-61
2022/04/16 03:34:56;;;;;;;8.80;8.05;;;10.50;99.90;;;;;;5066201;28;20278;-61
2022/04/16 03:37:27;;;;;;;9.38;8.48;;;10.50;99.90;;;;;;5066515;28;20203;-60
2022/04/16 03:39:55;;;;;;;9.40;8.52;;;10.50;99.90;;;;;;5065169;28;20333;-61
2022/04/16 03:42:23;;;;;;;10.38;9.48;;;10.40;99.90;;;;;;5065445;28;20281;-61
2022/04/16 03:44:50;;;;;;;10.93;9.85;;;10.40;99.90;;;;;;5065533;28;20305;-61
2022/04/16 03:47:18;;;;;;;12.18;9.25;;;10.40;99.90;;;;;;5067128;28;20204;-62
2022/04/16 03:49:46;;;;;;;9.93;8.93;;;10.40;99.90;;;;;;5066368;28;20223;-60
2022/04/16 03:52:14;;;;;;;11.25;9.77;;;10.40;99.90;;;;;;5066194;28;20739;-62
2022/04/16 04:00:14;;;;;;;10.52;9.45;;;10.60;99.90;;;;;;5065404;28;20223;-61
2022/04/16 04:02:42;;;;;;;10.02;9.02;;;10.60;99.90;;;;;;5064183;28;20262;-61
2022/04/16 04:05:11;;;;;;;10.38;9.30;;;10.50;99.90;;;;;;5066986;28;20584;-62
2022/04/16 04:07:39;;;;;;;11.35;10.25;;;10.60;99.90;;;;;;5065936;28;20235;-61
2022/04/16 04:10:10;;;;;;;11.05;10.00;;;10.60;99.90;;;;;;5066765;28;20741;-61
2022/04/16 04:12:38;;;;;;;10.15;9.15;;;10.50;99.90;;;;;;5070341;28;20235;-60
2022/04/16 04:15:07;;;;;;;11.20;10.15;;;10.50;99.90;;;;;;5065053;28;20204;-61
2022/04/16 04:17:35;;;;;;;10.70;9.70;;;10.50;99.90;;;;;;5065208;28;20219;-61
2022/04/16 04:20:03;;;;;;;10.68;9.60;;;10.40;99.90;;;;;;5065275;28;20285;-61
2022/04/16 04:22:31;;;;;;;10.98;9.95;;;10.50;99.90;;;;;;5065034;28;20237;-61
2022/04/16 04:24:59;;;;;;;11.32;10.23;;;10.50;99.90;;;;;;5065045;28;20255;-61
2022/04/16 04:27:28;;;;;;;11.45;10.38;;;10.50;99.90;;;;;;5063841;28;20303;-61
2022/04/16 04:29:56;;;;;;;10.00;9.20;;;10.50;99.90;;;;;;5065891;28;20225;-61
2022/04/16 04:32:24;;;;;;;10.32;9.38;;;10.50;99.90;;;;;;5062286;28;20199;-61
2022/04/16 04:34:52;;;;;;;12.60;10.60;;;10.50;99.90;;;;;;5063068;28;20291;-61
2022/04/16 04:37:20;;;;;;;11.82;10.73;;;10.40;99.90;;;;;;5065533;28;20615;-61
2022/04/16 04:39:48;;;;;;;11.70;10.50;;;10.40;99.90;;;;;;5064670;28;21702;-60
2022/04/16 04:42:23;;;;;;;14.85;11.07;;;10.30;99.90;;;;;;5064589;28;20321;-60
2022/04/16 04:44:53;;;;;;;11.85;10.65;;;10.30;99.90;;;;;;5065437;28;20303;-61
2022/04/16 04:47:21;;;;;;;11.77;10.68;;;10.20;99.90;;;;;;5066573;28;20230;-61
2022/04/16 04:49:49;;;;;;;11.88;10.75;;;10.30;99.90;;;;;;5063923;28;20219;-61
2022/04/16 04:52:21;;;;;;;11.30;10.20;;;10.30;99.90;;;;;;5064020;28;20207;-61
2022/04/16 04:54:49;;;;;;;13.15;11.85;;;10.30;99.90;;;;;;5064477;28;20191;-61
2022/04/16 04:57:17;;;;;;;12.30;11.20;;;10.30;99.90;;;;;;5065438;28;20238;-61
2022/04/16 04:59:44;;;;;;;11.48;10.32;;;10.30;99.90;;;;;;5065255;28;20250;-60
2022/04/16 05:02:14;;;;;;;12.90;11.80;;;10.30;99.90;;;;;;5062867;28;20235;-62
2022/04/16 05:04:42;;;;;;;12.15;10.57;;;10.40;99.90;;;;;;5063696;28;20207;-61
2022/04/16 05:07:10;;;;;;;11.10;10.00;;;10.50;99.90;;;;;;5063752;28;20306;-61
2022/04/16 05:09:38;;;;;;;11.18;10.07;;;10.40;99.90;;;;;;5069899;28;20215;-61
2022/04/16 05:12:07;;;;;;;10.50;9.63;;;10.30;99.90;;;;;;5069255;28;20234;-61
2022/04/16 05:14:34;;;;;;;9.73;8.88;;;10.30;99.90;;;;;;5063712;28;20884;-61
2022/04/16 05:17:02;;;;;;;10.32;9.32;;;10.30;99.90;;;;;;5063202;28;20297;-60
2022/04/16 05:19:31;;;;;;;9.18;8.38;;;10.30;99.90;;;;;;5064601;28;20219;-61
2022/04/16 05:21:59;;;;;;;10.50;9.07;;;10.30;99.90;;;;;;5062954;28;20903;-60
2022/04/16 05:24:27;;;;;;;10.20;9.30;;;10.30;99.90;;;;;;5064433;28;20310;-60
2022/04/16 05:26:55;;;;;;;9.52;8.55;;;10.30;99.90;;;;;;5061625;28;20315;-60
2022/04/16 05:29:24;;;;;;;8.68;7.97;;;10.30;99.90;;;;;;5062698;28;20664;-60
2022/04/16 05:31:52;;;;;;;9.70;8.80;;;10.30;99.90;;;;;;5063773;28;20265;-61
2022/04/16 05:34:20;;;;;;;8.27;7.47;;;10.30;99.90;;;;;;5064967;28;20767;-61
2022/04/16 05:36:50;;;;;;;7.03;6.43;;;10.30;99.90;;;;;;5071589;28;20208;-60
2022/04/16 05:39:19;;;;;;;7.50;6.80;;;10.30;99.90;;;;;;5144989;22;20662;-61
2022/04/16 05:41:47;;;;;;;7.25;6.65;;;10.30;99.90;;;;;;5037487;28;20232;-61
2022/04/16 05:44:15;;;;;;;6.85;6.25;;;10.20;99.90;;;;;;5042648;28;20295;-61
2022/04/16 05:46:48;;;;;;;6.95;6.32;;;10.20;99.90;;;;;;5041636;28;20291;-61
2022/04/16 05:49:15;;;;;;;6.63;6.13;;;10.20;99.90;;;;;;5041996;28;20689;-61
2022/04/16 05:51:43;;;;;;;7.70;6.95;;;10.20;99.90;;;;;;5044493;28;20204;-60
2022/04/16 05:54:12;;;;;;;8.38;7.63;;;10.20;99.90;;;;;;5044246;28;20210;-61
2022/04/16 05:56:40;;;;;;;7.13;6.53;;;10.20;99.90;;;;;;5045398;28;20274;-62
2022/04/16 05:59:08;;;;;;;7.90;7.20;;;10.20;99.90;;;;;;5045611;28;20315;-61
2022/04/16 06:01:36;;;;;;;7.40;6.80;;;10.20;99.90;;;;;;5044447;28;20253;-61
2022/04/16 06:04:04;;;;;;;7.40;6.80;;;10.10;99.90;;;;;;5043655;28;20744;-62
2022/04/16 06:06:32;;;;;;;7.75;7.15;;;10.10;99.90;;;;;;5044900;28;20289;-62
2022/04/16 06:09:00;;;;;;;7.40;6.80;;;10.10;99.90;;;;;;5045448;28;20313;-62
2022/04/16 06:11:31;;;;;;;7.68;7.07;;;10.20;99.90;;;;;;5045403;28;20208;-61
2022/04/16 06:13:59;;;;;;;7.10;6.57;;;10.20;99.90;;;;;;5043138;28;20283;-61
2022/04/16 06:16:26;;;;;;;7.90;7.30;;;10.20;99.90;;;;;;5045234;28;20291;-61
2022/04/16 06:18:54;;;;;;;8.45;7.68;;;10.30;99.90;;;;;;5044735;28;20228;-62
2022/04/16 06:21:22;;;;;;;6.55;6.05;;;10.20;99.90;;;;;;5043237;28;20231;-61
2022/04/16 06:23:51;;;;;;;6.60;6.00;;;10.30;99.90;;;;;;5042372;28;20685;-61
2022/04/16 06:26:19;;;;;;;7.25;6.65;;;10.40;99.90;;;;;;5050232;28;20216;-61
2022/04/16 06:28:49;;;;;;;7.35;6.65;;;10.40;99.90;;;;;;5050704;28;20777;-61
2022/04/16 06:31:16;;;;;;;7.00;6.50;;;10.40;99.90;;;;;;5043008;28;20303;-62
2022/04/16 06:33:46;;;;;;;7.38;6.78;;;10.40;99.90;;;;;;5042507;28;20195;-61
2022/04/16 06:36:14;;;;;;;7.25;6.75;;;10.50;99.90;;;;;;5044656;28;20200;-62
2022/04/16 06:38:42;;;;;;;7.38;6.80;;;10.50;99.90;;;;;;5043685;28;20281;-62
2022/04/16 06:41:10;;;;;;;5.95;5.50;;;10.50;99.90;;;;;;5044827;28;20262;-62
2022/04/16 06:43:38;;;;;;;7.13;6.53;;;10.50;99.90;;;;;;5043914;28;20196;-61
2022/04/16 06:46:07;;;;;;;6.90;6.40;;;10.50;99.90;;;;;;5043386;28;20266;-61
2022/04/16 06:48:35;;;;;;;7.20;6.70;;;10.50;99.90;;;;;;5042429;28;20223;-62
2022/04/16 06:51:03;;;;;;;7.10;6.50;;;10.50;99.90;;;;;;5044303;28;20649;-60
2022/04/16 06:53:31;;;;;;;7.15;6.55;;;10.50;99.90;;;;;;5040821;28;20196;-62
2022/04/16 06:56:00;;;;;;;7.45;6.68;;;10.50;99.90;;;;;;5043016;28;20768;-62
2022/04/16 06:58:29;;;;;;;6.55;6.05;;;10.50;99.90;;;;;;5044282;28;20220;-63
2022/04/16 07:00:57;;;;;;;7.10;6.35;;;10.50;99.90;;;;;;5047120;28;20227;-63
2022/04/16 07:03:27;;;;;;;6.88;6.28;;;10.60;99.90;;;;;;5046362;28;20561;-63
2022/04/16 07:05:55;;;;;;;6.53;5.97;;;10.70;99.90;;;;;;5045405;28;20589;-62
2022/04/16 07:08:23;;;;;;;6.75;6.05;;;10.70;99.90;;;;;;5037324;28;20294;-62
2022/04/16 07:10:53;;;;;;;6.68;6.05;;;10.70;99.90;;;;;;5024284;28;20211;-62
2022/04/16 07:13:21;;;;;;;5.63;5.13;;;10.80;99.90;;;;;;5026672;28;20786;-62
2022/04/16 07:15:49;;;;;;;5.63;5.22;;;10.80;99.90;;;;;;5027316;28;20192;-62
2022/04/16 07:18:17;;;;;;;5.10;4.68;;;10.80;99.90;;;;;;5027423;28;20216;-63
2022/04/16 07:20:47;;;;;;;6.35;5.75;;;10.80;99.90;;;;;;5026840;28;20295;-63
2022/04/16 07:23:14;;;;;;;5.35;4.85;;;10.80;99.90;;;;;;5024981;28;20279;-62
2022/04/16 07:25:42;;;;;;;3.80;3.50;;;10.90;99.90;;;;;;5035295;28;20216;-62
2022/04/16 07:28:12;;;;;;;4.55;4.25;;;11.00;99.90;;;;;;5028494;28;20216;-62
2022/04/16 07:30:40;;;;;;;3.72;3.35;;;11.00;99.90;;;;;;5026451;28;20306;-61
2022/04/16 07:33:08;;;;;;;4.70;3.50;;;11.20;99.90;;;;;;5024093;28;20313;-62
2022/04/16 07:35:38;;;;;;;6.30;4.45;;;11.50;99.90;;;;;;5037467;28;20719;-62
2022/04/16 07:38:08;;;;;;;3.55;3.35;;;11.70;99.90;;;;;;5047614;28;20270;-64
2022/04/16 07:40:36;;;;;;;4.60;4.20;;;11.80;99.90;;;;;;5047377;28;20260;-63
2022/04/16 07:43:04;;;;;;;4.00;3.58;;;11.90;99.90;;;;;;5046563;28;20230;-62
2022/04/16 07:45:33;;;;;;;4.32;3.92;;;12.10;99.90;;;;;;5046902;28;20278;-63
2022/04/16 07:48:01;;;;;;;3.70;3.40;;;12.20;99.90;;;;;;5049632;28;20279;-62
2022/04/16 07:50:29;;;;;;;5.30;4.80;;;12.10;99.90;;;;;;5051721;28;20224;-62
2022/04/16 07:52:57;;;;;;;4.40;4.00;;;12.20;99.90;;;;;;5050104;28;20196;-62
2022/04/16 07:55:28;;;;;;;4.05;3.55;;;12.10;99.90;;;;;;5053180;28;20242;-62
2022/04/16 07:57:55;;;;;;;5.93;3.95;;;12.30;99.90;;;;;;5050778;28;20239;-62
2022/04/16 08:00:23;;;;;;;4.10;3.70;;;12.30;99.90;;;;;;5048442;28;20228;-62
2022/04/16 08:02:51;;;;;;;5.00;3.58;;;12.20;99.90;;;;;;5049674;28;20738;-62
2022/04/16 08:05:19;;;;;;;4.28;2.95;;;12.00;99.90;;;;;;5041183;28;20710;-62
2022/04/16 08:07:50;;;;;;;3.28;2.55;;;12.10;99.90;;;;;;5053100;28;20208;-62
2022/04/16 08:10:18;;;;;;;2.90;2.55;;;12.10;99.90;;;;;;5050042;28;20274;-62
2022/04/16 08:12:47;;;;;;;2.20;2.00;;;12.00;99.90;;;;;;5052382;28;20231;-62
2022/04/16 08:15:15;;;;;;;1.27;1.10;;;12.00;99.90;;;;;;5050604;28;20282;-62
2022/04/16 08:17:43;;;;;;;1.67;1.13;;;11.90;99.90;;;;;;5052806;28;20294;-62
2022/04/16 08:20:11;;;;;;;1.30;1.20;;;12.10;99.90;;;;;;5052101;28;20304;-63
2022/04/16 08:22:46;;;;;;;1.88;1.67;;;12.20;99.90;;;;;;5052560;28;20199;-63
2022/04/16 08:27:57;;;;;;;2.20;2.00;;;12.30;99.90;;;;;;5039975;28;20243;-63
2022/04/16 08:30:25;;;;;;;2.75;2.25;;;12.40;99.90;;;;;;5039735;28;20216;-63
2022/04/16 08:32:53;;;;;;;2.40;2.17;;;12.80;99.90;;;;;;5050220;28;20213;-62
2022/04/16 08:35:21;;;;;;;3.25;2.60;;;13.00;99.90;;;;;;5049909;28;20213;-62
2022/04/16 08:37:50;;;;;;;2.67;2.47;;;13.20;99.90;;;;;;5046118;28;20208;-63
2022/04/16 08:40:19;;;;;;;3.17;2.88;;;13.30;99.90;;;;;;5036308;28;20241;-62
2022/04/16 08:42:48;;;;;;;3.67;2.78;;;13.30;99.90;;;;;;5029418;28;20228;-62
2022/04/16 08:45:18;;;;;;;2.70;2.50;;;13.20;99.90;;;;;;5032857;28;20200;-62
2022/04/16 08:47:46;;;;;;;2.97;2.75;;;13.30;99.90;;;;;;5030798;28;20208;-62
2022/04/16 08:50:15;;;;;;;3.50;3.20;;;13.60;99.90;;;;;;5032526;28;20220;-63
2022/04/16 08:52:42;;;;;;;4.65;3.10;;;13.80;99.90;;;;;;5031098;28;20209;-62
2022/04/16 08:55:13;;;;;;;3.50;2.67;;;13.90;99.90;;;;;;5032785;28;20239;-63
2022/04/16 08:57:41;;;;;;;4.55;3.05;;;13.50;99.90;;;;;;5031278;28;20204;-62
2022/04/16 09:00:13;;;;;;;3.30;2.35;;;13.10;99.90;;;;;;5032423;28;20266;-62
2022/04/16 09:02:56;;;;;;;2.53;2.33;;;12.80;99.90;;;;;;5024042;28;20226;-62
2022/04/16 09:05:26;;;;;;;5.80;3.28;;;13.10;99.90;;;;;;5030007;28;20204;-63
2022/04/16 09:07:56;;;;;;;3.47;2.78;;;13.50;99.90;;;;;;5031172;28;20623;-62
2022/04/16 09:10:27;;;;;;;2.97;2.78;;;13.90;99.90;;;;;;5032367;28;20225;-62
2022/04/16 09:12:56;;;;;;;4.63;3.80;;;14.30;99.90;;;;;;5030808;28;20236;-63
2022/04/16 09:15:25;;;;;;;5.25;4.10;;;14.20;99.90;;;;;;5026930;28;20211;-63
2022/04/16 09:18:02;;;;;;;4.97;4.47;;;13.70;99.90;;;;;;5029585;28;20491;-62
2022/04/16 09:20:32;;;;;;;4.45;4.05;;;13.20;99.90;;;;;;5032025;28;20224;-63
2022/04/16 09:23:01;;;;;;;5.38;4.80;;;12.90;99.90;;;;;;5030607;28;20201;-62
2022/04/16 09:25:30;;;;;;;5.00;4.40;;;12.90;99.90;;;;;;5031975;28;20200;-62
2022/04/16 09:28:05;;;;;;;5.47;4.38;;;12.90;99.90;;;;;;5030692;28;20228;-62
2022/04/16 09:30:33;;;;;;;4.40;3.40;;;13.20;99.90;;;;;;5026114;28;20502;-62
2022/04/16 09:33:02;;;;;;;3.25;2.63;;;13.50;99.90;;;;;;5026220;28;20264;-62
2022/04/16 09:35:32;;;;;;;3.05;2.38;;;13.90;99.90;;;;;;5023414;28;20232;-62
2022/04/16 09:38:15;;;;;;;3.10;2.80;;;14.20;99.80;;;;;;5031435;28;20299;-62
2022/04/16 09:40:47;;;;;;;4.30;3.90;;;14.30;99.90;;;;;;5049398;28;20232;-62
2022/04/16 09:43:16;;;;;;;5.78;5.28;;;14.60;99.90;;;;;;5044680;28;20197;-62
2022/04/16 09:45:44;;;;;;;4.85;4.18;;;14.70;99.90;;;;;;5049408;28;20192;-62
2022/04/16 09:48:14;;;;;;;4.38;3.97;;;14.70;99.90;;;;;;5045524;28;20244;-62
2022/04/16 09:50:43;;;;;;;4.82;4.32;;;14.70;99.90;;;;;;5048603;28;20204;-62
2022/04/16 09:53:12;;;;;;;5.10;4.03;;;14.90;99.90;;;;;;5049942;28;20554;-63
2022/04/16 09:55:41;;;;;;;4.72;3.80;;;15.20;99.70;;;;;;5049056;28;20211;-62
2022/04/16 09:58:12;;;;;;;4.88;4.47;;;15.20;99.60;;;;;;5050691;28;20724;-63
2022/04/16 10:00:41;;;;;;;4.13;3.60;;;15.10;99.30;;;;;;5048017;28;20239;-63
2022/04/16 10:03:32;;;;;;;3.80;3.08;;;15.20;98.70;;;;;;5044184;28;20282;-63
2022/04/16 10:06:00;;;;;;;5.22;3.58;;;15.60;99.20;;;;;;5050404;28;20200;-63
2022/04/16 10:08:29;;;;;;;2.88;2.42;;;15.90;96.40;;;;;;5048271;28;21516;-62
2022/04/16 10:10:57;;;;;;;2.80;2.60;;;15.80;96.20;;;;;;5051237;28;20223;-63
2022/04/16 10:13:32;;;;;;;2.40;2.20;;;15.80;96.60;;;;;;5050351;28;20215;-63
2022/04/16 10:16:08;;;;;;;3.33;2.80;;;15.50;96.70;;;;;;5046800;28;20233;-62
2022/04/16 10:18:38;;;;;;;3.25;2.95;;;15.60;97.20;;;;;;5045175;28;20219;-63
2022/04/16 10:21:14;;;;;;;2.17;2.08;;;16.00;97.20;;;;;;5046045;28;20684;-63
2022/04/16 10:23:45;;;;;;;4.57;3.05;;;16.50;96.30;;;;;;5049339;28;20730;-63
2022/04/16 10:26:14;;;;;;;3.53;3.22;;;16.50;96.20;;;;;;5050798;28;20243;-63
2022/04/16 10:28:44;;;;;;;2.88;2.63;;;16.50;95.50;;;;;;5049882;28;20224;-63
2022/04/16 10:31:23;;;;;;;3.40;3.10;;;16.30;96.00;;;;;;5050906;28;20287;-63
2022/04/16 10:33:59;;;;;;;3.53;3.22;;;15.80;95.30;;;;;;5039232;28;20611;-62
2022/04/16 10:36:29;;;;;;;2.65;2.45;;;15.60;95.90;;;;;;5050772;28;20600;-63
2022/04/16 10:38:57;;;;;;;2.88;2.63;;;15.90;95.30;;;;;;5039980;28;20275;-63
2022/04/16 10:41:27;;;;;;;3.00;2.45;;;16.00;94.70;;;;;;5030936;28;20204;-63
2022/04/16 10:43:59;;;;;;;5.93;3.38;;;16.10;94.80;;;;;;5022243;28;20205;-62
2022/04/16 10:46:41;;;;;;;3.38;3.08;;;16.10;94.20;;;;;;5030410;28;20271;-63
2022/04/16 10:49:11;;;;;;;2.45;2.13;;;15.90;94.10;;;;;;5030590;28;20224;-63
2022/04/16 10:51:39;;;;;;;3.55;3.15;;;16.00;94.10;;;;;;5030268;28;20192;-63
2022/04/16 10:54:10;;;;;;;2.50;2.30;;;16.40;93.40;;;;;;5027988;28;20570;-63
2022/04/16 10:56:40;;;;;;;2.70;2.50;;;16.60;93.50;;;;;;5029113;28;20291;-62
2022/04/16 10:59:10;;;;;;;4.50;2.78;;;16.10;93.70;;;;;;5027870;28;20268;-63
2022/04/16 11:01:39;;;;;;;3.28;2.55;;;16.30;93.90;;;;;;5030582;28;20204;-62
2022/04/16 11:04:15;;;;;;;2.63;2.30;;;16.40;93.40;;;;;;5024054;28;20237;-63
2022/04/16 11:06:45;;;;;;;3.20;2.90;;;16.40;93.40;;;;;;5026171;28;20665;-63
2022/04/16 11:09:13;;;;;;;2.55;2.35;;;16.50;92.80;;;;;;5029504;28;20244;-62
2022/04/16 11:11:43;;;;;;;2.00;1.90;;;16.80;91.90;;;;;;5027488;28;20196;-62
2022/04/16 11:14:11;;;;;;;2.35;2.15;;;16.70;91.40;;;;;;5027811;28;20674;-63
2022/04/16 11:16:44;;;;;;;1.92;1.80;;;16.80;92.20;;;;;;5030252;28;20687;-63
2022/04/16 11:19:15;;;;;;;2.70;2.05;;;16.90;91.00;;;;;;5025469;28;20698;-63
2022/04/16 11:21:43;;;;;;;2.03;1.88;;;17.10;91.10;;;;;;5030426;28;20204;-63
2022/04/16 11:24:12;;;;;;;1.90;1.75;;;17.00;90.60;;;;;;5028616;28;20664;-63
2022/04/16 11:34:58;;;;;;;2.58;1.30;;;17.30;88.20;;;;;;5025167;28;20308;-63
2022/04/16 11:37:32;;;;;;;2.40;1.70;;;17.30;88.90;;;;;;5030484;28;20204;-63
2022/04/16 11:40:02;;;;;;;2.35;2.05;;;17.20;87.40;;;;;;5035936;22;20728;-61
2022/04/16 11:42:30;;;;;;;2.35;1.60;;;17.10;87.80;;;;;;5042690;28;20210;-62
2022/04/16 11:44:59;;;;;;;1.63;1.52;;;17.30;86.10;;;;;;5046238;28;20203;-62
2022/04/16 11:47:28;;;;;;;1.67;1.52;;;17.40;83.90;;;;;;5033159;28;20373;-63
2022/04/16 11:49:59;;;;;;;1.58;1.38;;;17.40;83.40;;;;;;5034281;28;20243;-62
2022/04/16 11:52:28;;;;;;;1.67;1.58;;;17.30;81.80;;;;;;5033510;28;20254;-63
2022/04/16 11:55:05;;;;;;;2.30;1.35;;;17.60;80.60;;;;;;5032546;28;20315;-63
2022/04/16 11:57:34;;;;;;;1.85;1.40;;;17.80;81.80;;;;;;5032943;28;20777;-63
2022/04/16 12:00:05;;;;;;;1.42;1.33;;;18.20;79.40;;;;;;5031526;28;20289;-63
2022/04/16 12:02:34;;;;;;;2.38;1.90;;;18.00;78.20;;;;;;5032826;28;20224;-62
2022/04/16 12:05:12;;;;;;;2.30;1.30;;;18.10;78.80;;;;;;5035470;28;20861;-62
2022/04/16 12:07:43;;;;;;;1.65;1.27;;;17.80;79.50;;;;;;5038402;28;20931;-63
2022/04/16 12:10:14;;;;;;;1.88;1.73;;;17.90;78.40;;;;;;5035410;28;20311;-63
2022/04/16 12:12:44;;;;;;;1.55;1.45;;;18.10;79.60;;;;;;5032510;28;20259;-63
2022/04/16 12:15:12;;;;;;;1.70;1.40;;;18.20;77.40;;;;;;5031528;28;20192;-62
2022/04/16 12:17:41;;;;;;;0.80;0.80;;;18.30;77.90;;;;;;5031365;28;20847;-62
2022/04/16 12:20:12;;;;;;;1.65;1.50;;;18.50;76.80;;;;;;5033352;28;20766;-62
2022/04/16 12:22:48;;;;;;;1.20;1.10;;;18.50;76.50;;;;;;5033000;28;20232;-62
2022/04/16 12:25:17;;;;;;;1.73;1.40;;;18.90;75.40;;;;;;5015458;28;20213;-61
2022/04/16 12:27:47;;;;;;;1.10;1.00;;;18.80;74.40;;;;;;5032690;28;20340;-61
2022/04/16 12:30:16;;;;;;;1.58;1.30;;;18.50;74.00;;;;;;5032438;28;20305;-62
2022/04/16 12:32:55;;;;;;;4.07;1.25;;;18.50;74.90;;;;;;5030731;28;20200;-62
2022/04/16 12:35:25;;;;;;;2.50;1.40;;;18.50;73.20;;;;;;5031344;28;20299;-62
2022/04/16 12:37:54;;;;;;;1.42;1.30;;;18.40;74.00;;;;;;5032766;28;20200;-62
2022/04/16 12:40:22;;;;;;;2.85;1.10;;;18.50;75.50;;;;;;5033304;28;20677;-62
2022/04/16 12:42:50;;;;;;;2.15;1.45;;;18.90;73.20;;;;;;5032416;28;20309;-62
2022/04/16 12:45:18;;;;;;;2.25;1.30;;;18.90;71.70;;;;;;5032647;28;20273;-63
2022/04/16 12:47:48;;;;;;;2.97;1.45;;;19.00;72.30;;;;;;5032689;28;21655;-63
2022/04/16 12:50:16;;;;;;;1.30;1.20;;;19.10;72.10;;;;;;5034270;28;20298;-63
2022/04/16 12:52:46;;;;;;;1.58;1.30;;;19.20;71.80;;;;;;5031104;28;21536;-63
2022/04/16 12:55:15;;;;;;;2.05;1.30;;;19.30;72.30;;;;;;5024618;28;20264;-64
2022/04/16 12:57:44;;;;;;;2.22;1.17;;;19.60;69.90;;;;;;5032409;28;21541;-64
2022/04/16 13:00:14;;;;;;;1.20;1.10;;;19.50;69.90;;;;;;5030229;28;20239;-62
2022/04/16 13:02:43;;;;;;;1.10;1.00;;;19.60;69.50;;;;;;5032029;28;21165;-63
2022/04/16 13:05:12;;;;;;;2.00;1.13;;;19.00;70.60;;;;;;5029654;28;20266;-62
2022/04/16 13:07:41;;;;;;;5.18;1.20;;;19.00;69.10;;;;;;5031384;28;20227;-63
2022/04/16 13:10:10;;;;;;;2.08;1.15;;;19.20;70.50;;;;;;5036301;28;20355;-63
2022/04/16 13:12:39;;;;;;;1.55;1.15;;;19.30;69.40;;;;;;5038403;28;20295;-63
2022/04/16 13:15:08;;;;;;;1.55;1.08;;;19.10;68.10;;;;;;5032851;28;20298;-63
2022/04/16 13:17:36;;;;;;;2.10;1.20;;;19.30;68.30;;;;;;5033081;28;20201;-63
2022/04/16 13:20:06;;;;;;;2.05;1.00;;;19.40;67.90;;;;;;5032650;28;20270;-64